Time;durP1;ratioP1;P1;durP2;ratioP2;P2;SDS_P1;SDS_P2;PMS_P1;PMS_P2;Temp;Humidity;BMP_temperature;BMP_pressure;BME280_temperature;BME280_humidity;BME280_pressure;Samples;Min_cycle;Max_cycle;Signal;HPM_P1;HPM_P2
2021/01/29 00:02:30;;;;;;;44.20;25.05;;;;;;;-3.09;82.38;99810.84;5052514;28;20063;-74
2021/01/29 00:04:58;;;;;;;39.97;22.95;;;;;;;-2.94;82.43;99820.31;5051255;28;20063;-74
2021/01/29 00:07:27;;;;;;;41.38;22.00;;;;;;;-2.77;80.42;99828.97;5052466;28;20029;-74
2021/01/29 00:09:54;;;;;;;53.92;27.00;;;;;;;-3.14;81.04;99834.75;5052437;28;20029;-74
2021/01/29 00:12:31;;;;;;;46.38;24.55;;;;;;;-3.19;79.60;99828.81;5034557;28;20037;-72
2021/01/29 00:15:08;;;;;;;51.95;24.75;;;;;;;-3.18;79.24;99819.72;5052486;28;20036;-75
2021/01/29 00:17:35;;;;;;;42.53;21.48;;;;;;;-3.30;79.64;99819.44;5052238;28;20033;-75
2021/01/29 00:20:05;;;;;;;38.97;20.77;;;;;;;-3.15;79.27;99794.97;5052296;28;20033;-74
2021/01/29 00:22:53;;;;;;;37.22;20.23;;;;;;;-3.03;78.71;99807.69;5052570;28;20037;-74
2021/01/29 00:25:34;;;;;;;33.53;18.88;;;;;;;-2.52;77.07;99798.88;5052116;28;20059;-73
2021/01/29 00:28:01;;;;;;;33.15;14.98;;;;;;;-2.87;76.60;99800.59;5052592;28;20068;-72
2021/01/29 00:30:34;;;;;;;43.28;22.23;;;;;;;-2.81;77.58;99799.88;5052078;28;20067;-72
2021/01/29 00:33:14;;;;;;;32.08;17.90;;;;;;;-2.88;78.01;99801.41;5052016;28;20025;-72
2021/01/29 00:35:41;;;;;;;32.00;17.95;;;;;;;-2.82;77.42;99780.81;5034637;28;20049;-74
2021/01/29 00:38:10;;;;;;;29.20;16.98;;;;;;;-2.57;77.75;99782.19;5051721;28;20083;-74
2021/01/29 00:40:48;;;;;;;30.77;16.33;;;;;;;-2.58;76.32;99782.97;5051670;28;20029;-74
2021/01/29 00:43:14;;;;;;;26.70;15.95;;;;;;;-3.19;77.34;99785.78;5033825;28;20482;-76
2021/01/29 00:45:47;;;;;;;27.48;16.30;;;;;;;-3.35;78.49;99774.63;5033974;28;20120;-75
2021/01/29 00:48:18;;;;;;;33.80;17.48;;;;;;;-2.95;77.79;99772.25;5051543;28;20033;-74
2021/01/29 00:50:44;;;;;;;36.97;18.38;;;;;;;-3.24;79.22;99777.34;5051848;28;20044;-76
2021/01/29 00:53:18;;;;;;;41.13;19.58;;;;;;;-2.95;76.79;99769.75;5034370;28;20025;-74
2021/01/29 00:55:54;;;;;;;40.30;20.95;;;;;;;-2.87;77.16;99785.69;5050475;28;20067;-75
2021/01/29 00:58:20;;;;;;;38.38;19.73;;;;;;;-2.82;77.26;99788.28;5033938;28;20048;-75
2021/01/29 01:00:47;;;;;;;29.02;17.40;;;;;;;-3.48;79.30;99796.63;5052077;28;20507;-75
2021/01/29 01:03:20;;;;;;;29.63;16.50;;;;;;;-3.33;78.15;99779.63;5033721;28;20036;-75
2021/01/29 01:05:48;;;;;;;38.20;19.40;;;;;;;-3.12;78.17;99793.41;5051607;28;20094;-74
2021/01/29 01:08:14;;;;;;;32.92;17.98;;;;;;;-3.21;79.98;99798.13;5051757;28;20029;-75
2021/01/29 01:10:41;;;;;;;35.78;18.60;;;;;;;-2.97;78.85;99797.88;5034130;28;20477;-74
2021/01/29 01:13:13;;;;;;;30.02;17.67;;;;;;;-3.35;77.92;99803.59;5033784;28;20120;-74
2021/01/29 01:16:00;;;;;;;;;;;;;;;-3.24;76.94;99789.78;5052020;28;20063;-74
2021/01/29 01:18:32;;;;;;;30.65;15.93;;;;;;;-3.59;77.63;99769.91;5051131;28;19912;-75
2021/01/29 01:21:13;;;;;;;28.08;15.57;;;;;;;-3.65;77.83;99771.41;5051570;28;20033;-74
2021/01/29 01:24:04;;;;;;;26.42;14.98;;;;;;;-3.23;77.85;99776.56;5051612;28;20025;-74
2021/01/29 01:26:37;;;;;;;44.33;16.63;;;;;;;-3.40;77.84;99770.34;5033922;28;20475;-74
2021/01/29 01:29:26;;;;;;;47.15;20.88;;;;;;;-3.08;76.61;99767.81;5051370;28;20037;-75
2021/01/29 01:32:06;;;;;;;34.50;18.27;;;;;;;-3.58;78.54;99770.75;5033601;28;20114;-74
2021/01/29 01:34:39;;;;;;;43.03;20.38;;;;;;;-3.16;77.78;99764.31;5033361;28;20025;-74
2021/01/29 01:37:05;;;;;;;31.15;17.33;;;;;;;-3.12;76.52;99758.59;5051199;28;20072;-74
2021/01/29 01:39:40;;;;;;;30.88;17.92;;;;;;;-3.09;77.28;99755.34;5051155;28;20040;-75
2021/01/29 01:42:06;;;;;;;28.92;16.30;;;;;;;-3.27;76.90;99745.84;5051169;28;20029;-74
2021/01/29 01:44:42;;;;;;;26.38;15.88;;;;;;;-3.21;77.97;99758.38;5034273;28;20029;-75
2021/01/29 01:47:21;;;;;;;27.50;16.35;;;;;;;-3.21;77.59;99760.88;5051131;28;20033;-74
2021/01/29 01:49:52;;;;;;;30.88;17.15;;;;;;;-3.28;78.50;99745.78;5033406;28;20094;-74
2021/01/29 01:52:42;;;;;;;27.92;16.40;;;;;;;-3.71;78.95;99774.56;5033151;28;20025;-74
2021/01/29 01:55:19;;;;;;;27.38;16.42;;;;;;;-3.39;79.42;99769.56;5051154;28;20091;-74
2021/01/29 01:57:51;;;;;;;30.42;17.65;;;;;;;-3.34;79.53;99766.38;5051425;28;20033;-74
2021/01/29 02:00:28;;;;;;;31.88;18.02;;;;;;;-3.28;78.98;99769.00;5054441;28;20035;-74
2021/01/29 02:03:12;;;;;;;32.00;18.70;;;;;;;-3.12;79.02;99762.72;5054864;28;20115;-75
2021/01/29 02:05:48;;;;;;;31.30;18.38;;;;;;;-3.27;78.87;99774.81;5055959;28;20033;-75
2021/01/29 02:08:30;;;;;;;35.55;19.50;;;;;;;-3.07;78.28;99744.63;5055571;28;20472;-75
2021/01/29 02:11:08;;;;;;;38.15;20.30;;;;;;;-3.13;78.75;99758.56;5055744;28;20029;-74
2021/01/29 02:13:43;;;;;;;36.70;20.42;;;;;;;-3.07;78.67;99739.66;5055544;28;20775;-75
2021/01/29 02:16:22;;;;;;;34.45;19.67;;;;;;;-3.61;80.24;99721.00;5055012;28;20029;-75
2021/01/29 02:19:25;;;;;;;48.05;24.65;;;;;;;-3.19;80.16;99764.22;5054530;28;20037;-74
2021/01/29 02:21:53;;;;;;;43.95;22.92;;;;;;;-3.06;79.49;99755.41;5054572;28;20025;-74
2021/01/29 02:27:54;;;;;;;39.35;21.33;;;;;;;-3.38;80.57;99741.41;5054554;28;20043;-74
2021/01/29 02:30:35;;;;;;;35.53;21.17;;;;;;;-2.86;79.88;99750.06;5036702;28;20063;-74
2021/01/29 02:36:45;;;;;;;35.92;20.60;;;;;;;-2.82;78.81;99746.00;5054125;28;20413;-74
2021/01/29 02:39:27;;;;;;;39.55;22.85;;;;;;;-2.79;79.86;99738.59;5034159;28;20041;-74
2021/01/29 02:45:42;;;;;;;41.03;22.77;;;;;;;-2.76;79.37;99738.69;5034264;28;20036;-74
2021/01/29 02:48:49;;;;;;;46.05;24.77;;;;;;;-2.68;79.15;99735.56;5034086;28;20041;-74
2021/01/29 02:51:58;;;;;;;61.45;31.75;;;;;;;-2.73;80.51;99733.75;5033859;28;20034;-74
2021/01/29 02:54:56;;;;;;;62.83;33.30;;;;;;;-2.80;80.43;99737.78;5034174;28;20085;-74
2021/01/29 02:57:49;;;;;;;51.28;28.58;;;;;;;-2.88;81.36;99748.34;5016189;28;20036;-74
2021/01/29 03:00:35;;;;;;;46.92;25.77;;;;;;;-2.75;79.91;99748.66;5033747;28;20143;-75
2021/01/29 03:03:41;;;;;;;44.80;24.40;;;;;;;-2.70;80.17;99743.78;5033229;28;20052;-75
2021/01/29 03:06:47;;;;;;;43.03;23.23;;;;;;;-2.77;79.64;99744.44;5034611;28;20034;-74
2021/01/29 03:09:24;;;;;;;46.70;25.65;;;;;;;-2.79;78.85;99731.97;5033467;28;20044;-74
2021/01/29 03:12:13;;;;;;;40.42;21.98;;;;;;;-2.82;80.25;99733.56;5032602;28;20560;-74
2021/01/29 03:14:45;;;;;;;38.20;22.30;;;;;;;-2.86;81.03;99726.84;5015108;28;20059;-74
2021/01/29 03:17:25;;;;;;;37.05;20.27;;;;;;;-2.90;80.78;99732.56;5033690;28;20040;-74
2021/01/29 03:20:28;;;;;;;38.60;20.55;;;;;;;-2.87;79.61;99727.66;5033359;28;20064;-74
2021/01/29 03:23:20;;;;;;;36.17;20.77;;;;;;;-3.36;80.80;99677.69;5015725;28;20040;-75
2021/01/29 03:25:54;;;;;;;39.70;22.08;;;;;;;-3.00;80.30;99728.22;5015720;28;20033;-75
2021/01/29 03:28:28;;;;;;;44.92;24.80;;;;;;;-2.81;79.72;99712.84;5015871;28;20406;-75
2021/01/29 03:31:01;;;;;;;43.53;23.58;;;;;;;-2.88;80.44;99730.97;5032002;28;20692;-75
2021/01/29 03:33:32;;;;;;;46.80;24.13;;;;;;;-2.93;80.55;99740.78;5015352;28;20029;-75
2021/01/29 03:36:08;;;;;;;56.20;31.00;;;;;;;-2.89;80.13;99741.69;5032940;28;20499;-74
2021/01/29 03:38:48;;;;;;;107.47;55.10;;;;;;;-2.63;79.96;99728.16;5049001;28;20537;-74
2021/01/29 03:41:34;;;;;;;58.30;33.22;;;;;;;-2.94;80.91;99725.84;5053084;28;20025;-75
2021/01/29 03:44:14;;;;;;;40.30;23.75;;;;;;;-2.77;80.54;99714.59;5052843;28;20529;-74
2021/01/29 03:46:46;;;;;;;33.00;18.02;;;;;;;-2.58;80.05;99718.31;5052742;28;20065;-75
2021/01/29 03:49:39;;;;;;;29.52;17.17;;;;;;;-2.81;80.65;99715.34;5035333;28;20025;-75
2021/01/29 03:55:33;;;;;;;31.92;17.33;;;;;;;-2.60;79.32;99709.97;5053061;28;20029;-75
2021/01/29 03:58:18;;;;;;;31.63;17.55;;;;;;;-2.74;80.84;99718.00;5052921;28;20542;-75
2021/01/29 04:00:56;;;;;;;33.30;19.50;;;;;;;-2.31;78.58;99718.84;5052779;28;20041;-75
2021/01/29 04:03:41;;;;;;;39.08;22.05;;;;;;;-2.56;80.21;99720.03;5052461;28;20082;-74
2021/01/29 04:06:16;;;;;;;47.92;26.15;;;;;;;-2.71;78.79;99703.16;5052573;28;20565;-74
2021/01/29 04:09:06;;;;;;;47.80;24.83;;;;;;;-2.57;79.41;99732.44;5051811;28;20434;-74
2021/01/29 04:12:00;;;;;;;35.67;19.38;;;;;;;-2.74;78.93;99730.44;5052448;28;20025;-74
2021/01/29 04:18:12;;;;;;;34.92;20.45;;;;;;;-2.76;79.45;99713.81;5051087;28;20032;-75
2021/01/29 04:21:19;;;;;;;40.05;20.38;;;;;;;-2.39;77.40;99708.75;5034305;28;20103;-75
2021/01/29 04:23:56;;;;;;;37.33;19.23;;;;;;;-2.14;77.86;99703.41;5051402;28;20039;-75
2021/01/29 04:26:43;;;;;;;35.30;18.55;;;;;;;-2.21;78.04;99699.13;5029828;28;20506;-77
2021/01/29 04:29:29;;;;;;;35.33;19.98;;;;;;;-2.49;77.99;99686.13;5033166;28;20044;-76
2021/01/29 04:32:03;;;;;;;53.38;26.80;;;;;;;-2.40;78.71;99691.31;5034186;28;20017;-78
2021/01/29 04:34:39;;;;;;;45.17;23.42;;;;;;;-2.25;76.29;99687.44;5032914;28;20029;-75
2021/01/29 04:37:13;;;;;;;42.35;22.55;;;;;;;-2.74;79.19;99675.75;5030201;28;20081;-77
2021/01/29 04:39:46;;;;;;;45.53;23.20;;;;;;;-2.59;78.66;99685.13;5030259;28;20029;-79
2021/01/29 04:42:54;;;;;;;88.63;40.75;;;;;;;-2.52;77.71;99699.38;5029794;28;20030;-75
2021/01/29 04:45:38;;;;;;;58.97;30.38;;;;;;;-2.38;77.09;99693.03;5028947;28;20501;-75
2021/01/29 04:48:41;;;;;;;52.25;29.05;;;;;;;-2.53;78.06;99679.44;5029212;28;20037;-76
2021/01/29 04:51:51;;;;;;;40.47;22.88;;;;;;;-2.39;77.56;99683.00;5030418;28;20036;-76
2021/01/29 04:54:26;;;;;;;41.08;22.38;;;;;;;-2.33;77.13;99676.50;5031067;28;20173;-75
2021/01/29 04:57:30;;;;;;;44.13;24.27;;;;;;;-2.19;77.12;99685.06;5028955;28;20037;-76
2021/01/29 05:04:07;;;;;;;27.70;16.00;;;;;;;-2.40;78.11;99697.13;5031603;28;20140;-75
2021/01/29 05:07:11;;;;;;;29.38;15.25;;;;;;;-2.58;78.68;99711.69;5017843;28;20048;-74
2021/01/29 05:10:21;;;;;;;31.92;17.23;;;;;;;-2.68;78.94;99714.81;5030712;28;20481;-76
2021/01/29 05:13:29;;;;;;;34.60;18.75;;;;;;;-2.15;77.34;99713.34;5030659;28;20038;-74
2021/01/29 05:16:13;;;;;;;38.53;21.52;;;;;;;-2.65;78.14;99720.69;5032175;28;20065;-75
2021/01/29 05:19:06;;;;;;;33.55;20.08;;;;;;;-2.44;78.50;99710.31;5028805;28;20029;-80
2021/01/29 05:22:20;;;;;;;38.35;22.48;;;;;;;-2.44;78.87;99725.25;5029552;28;20033;-78
2021/01/29 05:24:59;;;;;;;47.50;24.40;;;;;;;-2.79;78.23;99681.41;5030595;28;20060;-77
2021/01/29 05:30:56;;;;;;;48.83;27.05;;;;;;;-2.27;78.71;99726.41;5031257;28;20047;-83
2021/01/29 05:34:02;;;;;;;63.45;34.03;;;;;;;-2.45;79.04;99727.69;5030821;28;20034;-82
2021/01/29 05:37:03;;;;;;;49.97;29.20;;;;;;;-2.30;78.01;99726.34;5034805;28;20041;-80
2021/01/29 05:39:40;;;;;;;57.58;30.52;;;;;;;-2.57;78.10;99700.09;5037830;28;20140;-80
2021/01/29 05:42:28;;;;;;;53.13;29.75;;;;;;;-2.52;77.92;99720.91;5037896;28;20032;-76
2021/01/29 05:45:25;;;;;;;56.95;31.13;;;;;;;-1.58;76.29;99710.97;5050840;28;20398;-79
2021/01/29 05:48:11;;;;;;;63.38;33.03;;;;;;;-2.20;76.32;99713.25;5055698;28;20466;-81
2021/01/29 05:50:52;;;;;;;61.85;33.97;;;;;;;-2.16;76.29;99707.50;5057813;28;20029;-81
2021/01/29 05:53:38;;;;;;;67.07;36.05;;;;;;;-1.85;76.78;99703.91;5056781;28;20675;-80
2021/01/29 05:56:30;;;;;;;64.90;36.72;;;;;;;-1.99;76.24;99705.31;5038151;28;20502;-78
2021/01/29 05:59:28;;;;;;;73.90;37.65;;;;;;;-2.03;75.76;99693.63;5037480;28;20021;-79
2021/01/29 06:02:02;;;;;;;77.95;37.47;;;;;;;-2.07;76.14;99685.28;5052742;28;20033;-78
2021/01/29 06:05:01;;;;;;;59.20;32.00;;;;;;;-1.95;75.73;99692.97;5054007;28;20086;-79
2021/01/29 06:08:04;;;;;;;61.58;32.03;;;;;;;-2.04;76.08;99694.47;5055488;28;20113;-80
2021/01/29 06:11:08;;;;;;;65.13;31.90;;;;;;;-1.97;75.36;99699.56;5038342;28;20066;-79
2021/01/29 06:13:51;;;;;;;68.65;32.35;;;;;;;-1.96;76.80;99703.72;5037870;28;20028;-80
2021/01/29 06:16:38;;;;;;;69.55;32.53;;;;;;;-1.92;75.91;99699.63;5055078;28;20037;-81
2021/01/29 06:19:28;;;;;;;45.95;24.98;;;;;;;-2.04;75.42;99672.88;5055507;28;20403;-80
2021/01/29 06:22:15;;;;;;;49.55;27.60;;;;;;;-2.05;76.69;99690.28;5055421;28;20029;-82
2021/01/29 06:25:04;;;;;;;46.78;26.02;;;;;;;-1.89;75.41;99688.09;5054926;28;20095;-83
2021/01/29 06:28:14;;;;;;;39.58;22.25;;;;;;;-1.84;74.06;99706.41;5037094;28;20485;-83
2021/01/29 06:30:55;;;;;;;51.30;25.55;;;;;;;-2.09;76.53;99696.03;5028651;28;20040;-83
2021/01/29 06:33:20;;;;;;;41.00;23.75;;;;;;;-1.77;75.28;99709.88;5054720;28;20039;-84
2021/01/29 06:36:07;;;;;;;40.05;21.50;;;;;;;-1.99;75.16;99718.63;5036648;28;20112;-81
2021/01/29 06:39:03;;;;;;;48.65;25.67;;;;;;;-2.36;76.17;99721.25;5054358;28;20045;-82
2021/01/29 06:41:49;;;;;;;63.10;35.10;;;;;;;-2.27;76.48;99711.47;5036608;28;20087;-81
2021/01/29 06:44:40;;;;;;;46.38;26.80;;;;;;;-2.18;75.99;99724.06;5053910;28;20043;-81
2021/01/29 06:47:15;;;;;;;37.73;21.23;;;;;;;-2.34;76.74;99693.91;5054336;28;20094;-82
2021/01/29 06:49:51;;;;;;;70.20;37.03;;;;;;;-2.12;77.72;99734.13;5053949;28;20286;-81
2021/01/29 06:52:55;;;;;;;68.75;36.85;;;;;;;-2.34;76.07;99679.81;5054037;28;20498;-80
2021/01/29 06:55:53;;;;;;;65.07;36.20;;;;;;;-1.73;75.01;99733.16;5036437;28;20036;-80
2021/01/29 06:58:35;;;;;;;79.10;42.20;;;;;;;-1.73;76.63;99741.47;5023145;28;20083;-79
2021/01/29 07:01:38;;;;;;;72.70;38.92;;;;;;;-1.85;75.93;99747.09;5054228;28;20033;-80
2021/01/29 07:04:45;;;;;;;63.28;35.45;;;;;;;-2.00;75.64;99743.50;5071680;28;20016;-82
2021/01/29 07:07:27;;;;;;;100.15;52.45;;;;;;;-1.91;75.48;99731.19;4973688;28;20041;-82
2021/01/29 07:10:09;;;;;;;115.18;56.53;;;;;;;-1.90;75.57;99723.75;5039861;28;20071;-80
2021/01/29 07:12:53;;;;;;;93.28;52.83;;;;;;;-1.71;76.26;99739.00;5053916;28;20087;-81
2021/01/29 07:15:47;;;;;;;78.88;42.22;;;;;;;-1.49;75.36;99733.56;5035948;28;20485;-82
2021/01/29 07:18:42;;;;;;;97.57;52.05;;;;;;;-1.60;74.61;99725.91;5053625;28;20025;-82
2021/01/29 07:21:29;;;;;;;107.35;58.17;;;;;;;-1.38;76.20;99740.38;5030468;28;20195;-84
2021/01/29 07:24:01;;;;;;;128.48;63.42;;;;;;;-1.41;75.21;99740.34;5053375;28;20029;-82
2021/01/29 07:26:42;;;;;;;88.55;49.25;;;;;;;-1.24;74.34;99719.00;5035992;28;20414;-82
2021/01/29 07:29:38;;;;;;;130.75;70.75;;;;;;;-0.96;75.04;99747.66;5035661;28;20119;-80
2021/01/29 07:32:20;;;;;;;112.55;67.72;;;;;;;-1.45;76.92;99748.59;5053337;28;20024;-79
2021/01/29 07:35:14;;;;;;;71.38;40.58;;;;;;;-1.36;74.52;99742.91;5053162;28;20025;-79
2021/01/29 07:38:17;;;;;;;43.42;25.10;;;;;;;-1.46;77.04;99749.41;5053086;28;20118;-80
2021/01/29 07:41:14;;;;;;;39.97;21.58;;;;;;;-1.20;76.68;99745.66;5053226;28;20040;-81
2021/01/29 07:43:50;;;;;;;33.42;20.48;;;;;;;-1.17;78.06;99752.34;5053232;28;20071;-80
2021/01/29 07:46:34;;;;;;;34.95;20.40;;;;;;;-1.34;76.17;99749.59;5035481;28;20029;-80
2021/01/29 07:48:59;;;;;;;76.47;43.40;;;;;;;-0.96;73.95;99738.53;5035281;28;20493;-82
2021/01/29 07:51:43;;;;;;;89.07;47.67;;;;;;;-1.00;75.75;99741.81;5035448;28;20040;-83
2021/01/29 07:54:27;;;;;;;148.85;76.07;;;;;;;-0.83;74.02;99729.53;5035325;28;20040;-83
2021/01/29 07:57:11;;;;;;;39.88;23.25;;;;;;;-0.68;74.50;99731.41;5052450;28;20037;-82
2021/01/29 08:00:13;;;;;;;38.83;23.27;;;;;;;-0.22;74.39;99724.47;5053096;28;20029;-82
2021/01/29 08:03:16;;;;;;;44.78;27.98;;;;;;;-0.34;74.19;99726.84;5052835;28;20032;-80
2021/01/29 08:05:46;;;;;;;54.10;33.75;;;;;;;-0.38;73.12;99729.28;5052644;28;20095;-82
2021/01/29 08:08:19;;;;;;;69.13;41.88;;;;;;;-0.27;72.64;99697.78;5035238;28;20021;-85
2021/01/29 08:10:49;;;;;;;72.40;42.97;;;;;;;-0.27;72.85;99676.16;5052509;28;20429;-83
2021/01/29 08:14:10;;;;;;;66.90;41.90;;;;;;;-0.57;74.18;99709.91;5052807;28;20033;-83
2021/01/29 08:16:54;;;;;;;65.70;41.42;;;;;;;-0.22;73.55;99711.97;5052519;28;20047;-83
2021/01/29 08:19:28;;;;;;;55.88;32.30;;;;;;;-0.33;72.26;99718.53;5052329;28;20075;-84
2021/01/29 08:22:09;;;;;;;48.58;30.05;;;;;;;0.10;70.75;99709.78;5060578;28;20058;-83
2021/01/29 08:24:43;;;;;;;44.80;26.85;;;;;;;-0.48;72.87;99710.03;5060107;28;20125;-84
2021/01/29 08:27:35;;;;;;;48.53;29.05;;;;;;;0.20;71.40;99706.56;5052424;28;20089;-85
2021/01/29 08:30:22;;;;;;;48.50;27.58;;;;;;;-0.06;71.89;99713.00;5037893;28;20036;-88
2021/01/29 08:33:30;;;;;;;50.70;27.80;;;;;;;0.11;71.81;99710.66;5035114;28;20067;-86
2021/01/29 08:36:31;;;;;;;53.58;29.58;;;;;;;0.78;69.57;99705.34;4972154;28;20034;-87
2021/01/29 08:39:11;;;;;;;48.85;29.45;;;;;;;0.36;69.32;99712.53;4994259;28;20081;-86
2021/01/29 08:42:06;;;;;;;38.60;24.20;;;;;;;0.53;69.82;99716.00;5030703;28;20076;-85
2021/01/29 08:44:43;;;;;;;38.47;22.88;;;;;;;1.02;66.93;99698.00;5034855;28;20029;-83
2021/01/29 08:47:14;;;;;;;42.00;24.58;;;;;;;0.84;67.94;99690.38;5052144;28;20409;-84
2021/01/29 08:49:54;;;;;;;46.38;25.33;;;;;;;0.69;67.34;99671.09;5034143;28;20025;-82
2021/01/29 08:52:52;;;;;;;41.58;24.10;;;;;;;1.15;65.24;99697.22;5052158;28;20558;-81
2021/01/29 08:55:48;;;;;;;53.58;31.40;;;;;;;0.98;66.58;99692.97;5023698;28;20060;-80
2021/01/29 08:58:26;;;;;;;52.60;30.63;;;;;;;1.27;65.45;99696.47;5034626;28;20417;-81
2021/01/29 09:01:17;;;;;;;55.20;34.72;;;;;;;1.06;66.21;99698.84;5051868;28;20094;-80
2021/01/29 09:03:51;;;;;;;79.25;45.40;;;;;;;1.31;64.98;99683.09;5052122;28;20060;-78
2021/01/29 09:06:24;;;;;;;53.80;32.50;;;;;;;1.30;64.92;99673.94;5051932;28;20116;-79
2021/01/29 09:09:01;;;;;;;60.70;33.15;;;;;;;1.11;66.98;99700.53;5034025;28;20021;-78
2021/01/29 09:11:36;;;;;;;53.67;30.52;;;;;;;1.32;64.63;99687.28;5051948;28;20040;-79
2021/01/29 09:14:10;;;;;;;61.38;34.90;;;;;;;1.53;64.88;99687.38;5051501;28;20092;-79
2021/01/29 09:16:38;;;;;;;61.40;34.53;;;;;;;1.82;65.92;99685.81;5033873;28;20025;-80
2021/01/29 09:19:10;;;;;;;50.83;30.98;;;;;;;1.89;66.74;99686.63;5034204;28;20071;-79
2021/01/29 09:21:40;;;;;;;;;;;;;;;1.59;65.71;99692.41;5034294;28;20477;-80
2021/01/29 09:24:14;;;;;;;51.60;27.92;;;;;;;1.24;66.30;99674.75;5033791;28;19921;-80
2021/01/29 09:27:13;;;;;;;87.47;46.22;;;;;;;1.33;66.09;99704.81;5052377;28;20041;-80
2021/01/29 09:30:05;;;;;;;56.20;32.85;;;;;;;0.91;67.10;99644.59;5035435;28;20033;-80
2021/01/29 09:32:57;;;;;;;47.83;30.13;;;;;;;1.23;67.93;99687.28;5036057;28;20022;-79
2021/01/29 09:35:41;;;;;;;48.10;31.65;;;;;;;1.16;68.41;99685.56;5035850;28;20472;-82
2021/01/29 09:38:13;;;;;;;35.03;24.58;;;;;;;1.53;69.71;99685.72;5024545;28;20049;-81
2021/01/29 09:40:58;;;;;;;35.10;22.27;;;;;;;1.11;70.77;99652.19;5020292;28;20057;-79
2021/01/29 09:43:51;;;;;;;36.63;23.27;;;;;;;1.54;70.88;99667.38;5027139;28;20037;-81
2021/01/29 09:46:38;;;;;;;35.03;20.33;;;;;;;1.31;71.73;99660.56;5014745;28;20036;-82
2021/01/29 09:49:23;;;;;;;29.30;19.48;;;;;;;0.99;71.63;99617.91;5014100;28;20030;-79
2021/01/29 09:52:06;;;;;;;35.30;20.30;;;;;;;1.51;70.49;99654.81;5031808;28;20417;-81
2021/01/29 09:54:51;;;;;;;32.08;18.95;;;;;;;1.99;68.20;99634.03;5013810;28;20033;-82
2021/01/29 09:57:19;;;;;;;31.83;19.52;;;;;;;1.71;70.22;99642.34;5010498;28;20495;-82
2021/01/29 09:59:51;;;;;;;35.67;22.50;;;;;;;1.53;70.36;99648.16;5031465;28;20033;-81
2021/01/29 10:02:22;;;;;;;46.80;24.92;;;;;;;1.89;69.66;99644.88;5014045;28;20021;-81
2021/01/29 10:05:13;;;;;;;27.90;16.57;;;;;;;2.54;68.01;99629.81;5031733;28;20180;-83
2021/01/29 10:07:46;;;;;;;50.33;29.77;;;;;;;2.18;69.43;99629.88;5013828;28;20096;-80
2021/01/29 10:10:24;;;;;;;38.22;23.83;;;;;;;2.14;69.36;99649.06;5031763;28;20035;-82
2021/01/29 10:13:31;;;;;;;36.30;20.63;;;;;;;2.12;67.67;99619.84;5014337;28;20457;-86
2021/01/29 10:16:14;;;;;;;41.47;25.73;;;;;;;1.73;68.67;99588.06;5031682;28;20029;-86
2021/01/29 10:18:42;;;;;;;37.25;23.45;;;;;;;2.56;66.93;99625.63;5013609;28;20033;-85
2021/01/29 10:21:18;;;;;;;66.40;33.95;;;;;;;2.21;68.75;99627.34;5034359;28;20033;-80
2021/01/29 10:24:05;;;;;;;63.00;35.28;;;;;;;2.19;68.20;99594.75;5017178;28;20071;-80
2021/01/29 10:26:47;;;;;;;48.95;28.30;;;;;;;1.90;69.18;99556.34;5017407;28;20021;-83
2021/01/29 10:29:22;;;;;;;39.35;24.52;;;;;;;2.41;69.02;99608.09;5035118;28;20022;-80
2021/01/29 10:32:12;;;;;;;33.67;20.48;;;;;;;2.27;67.41;99599.75;5016999;28;20561;-79
2021/01/29 10:34:38;;;;;;;38.63;23.75;;;;;;;2.03;68.18;99617.31;5034806;28;20442;-83
2021/01/29 10:37:21;;;;;;;55.25;31.00;;;;;;;2.20;68.89;99610.66;5019631;28;20502;-78
2021/01/29 10:40:13;;;;;;;41.92;25.85;;;;;;;1.97;68.86;99605.63;5054471;28;20082;-84
2021/01/29 10:43:03;;;;;;;33.20;22.10;;;;;;;1.62;69.24;99557.19;5054450;28;20037;-86
2021/01/29 10:45:47;;;;;;;41.80;25.05;;;;;;;2.16;68.04;99574.69;5054258;28;20098;-85
2021/01/29 10:48:38;;;;;;;32.75;20.85;;;;;;;1.87;67.46;99545.47;5054014;28;20026;-82
2021/01/29 10:51:20;;;;;;;46.63;25.17;;;;;;;2.06;66.83;99560.50;5036097;28;20116;-77
2021/01/29 10:53:54;;;;;;;54.10;32.22;;;;;;;1.96;70.13;99580.56;5054137;28;20029;-78
2021/01/29 10:56:42;;;;;;;48.42;31.45;;;;;;;2.17;67.00;99553.81;5054472;28;20033;-81
2021/01/29 10:59:22;;;;;;;36.55;22.27;;;;;;;1.72;67.50;99547.16;5069321;28;20025;-80
2021/01/29 11:02:00;;;;;;;34.95;20.77;;;;;;;1.90;67.73;99546.34;5054770;28;20102;-81
2021/01/29 11:08:04;;;;;;;28.33;18.05;;;;;;;2.01;67.37;99541.28;5054270;28;20119;-80
2021/01/29 11:10:32;;;;;;;35.17;21.90;;;;;;;1.94;68.16;99520.41;5053918;28;20037;-81
2021/01/29 11:16:27;;;;;;;36.30;23.27;;;;;;;1.90;68.50;99530.47;5054265;28;20128;-76
2021/01/29 11:19:15;;;;;;;41.08;25.42;;;;;;;2.02;68.17;99518.72;5053917;28;20032;-77
2021/01/29 11:21:51;;;;;;;49.53;28.70;;;;;;;1.92;69.64;99528.78;5053488;28;20045;-77
2021/01/29 11:24:32;;;;;;;42.38;24.55;;;;;;;2.05;68.92;99527.94;5053689;28;20025;-80
2021/01/29 11:27:35;;;;;;;50.08;30.67;;;;;;;1.84;70.28;99527.97;5053830;28;20029;-81
2021/01/29 11:33:55;;;;;;;42.92;26.63;;;;;;;2.06;71.53;99539.63;5053561;28;20075;-80
2021/01/29 11:36:30;;;;;;;49.30;27.77;;;;;;;1.81;72.70;99543.81;5053897;28;20036;-80
2021/01/29 11:39:40;;;;;;;43.67;27.13;;;;;;;1.91;71.89;99517.09;5032516;28;20498;-80
2021/01/29 11:42:29;;;;;;;40.80;23.95;;;;;;;1.76;71.56;99503.72;5048972;28;20025;-78
2021/01/29 11:45:19;;;;;;;48.42;27.92;;;;;;;2.09;71.30;99500.34;5035727;28;20021;-79
2021/01/29 11:48:35;;;;;;;34.20;21.92;;;;;;;2.07;71.15;99506.19;5035692;28;20477;-79
2021/01/29 11:54:41;;;;;;;34.88;21.50;;;;;;;1.94;71.17;99502.88;5053373;28;20521;-80
2021/01/29 12:00:46;;;;;;;44.60;25.58;;;;;;;2.01;72.03;99491.19;5053316;28;20059;-79
2021/01/29 12:04:05;;;;;;;55.03;31.70;;;;;;;2.10;71.24;99481.97;5052849;28;20059;-83
2021/01/29 12:07:11;;;;;;;43.58;27.13;;;;;;;2.12;70.90;99471.97;5053007;28;20033;-81
2021/01/29 12:16:40;;;;;;;33.50;18.70;;;;;;;1.88;71.62;99472.84;5053325;28;20044;-80
2021/01/29 12:19:09;;;;;;;44.10;28.88;;;;;;;2.11;71.61;99476.13;5063647;28;20009;-79
2021/01/29 12:21:55;;;;;;;39.97;25.33;;;;;;;2.17;71.38;99468.59;5037778;28;20135;-80
2021/01/29 12:28:08;;;;;;;40.03;24.02;;;;;;;2.27;71.72;99462.72;5053339;28;20047;-82
2021/01/29 12:30:58;;;;;;;29.52;19.27;;;;;;;2.31;71.55;99461.88;5052943;28;20493;-84
2021/01/29 12:37:19;;;;;;;23.83;14.77;;;;;;;2.51;70.72;99449.25;5052777;28;20064;-82
2021/01/29 12:40:47;;;;;;;34.08;21.38;;;;;;;2.30;71.77;99449.31;5015274;28;20037;-82
2021/01/29 12:47:03;;;;;;;33.72;19.98;;;;;;;2.43;71.14;99418.34;5032460;28;20503;-81
2021/01/29 12:50:06;;;;;;;33.28;20.13;;;;;;;2.27;72.18;99424.28;5032095;28;20056;-82
2021/01/29 12:52:54;;;;;;;39.55;23.52;;;;;;;2.28;72.91;99413.38;5032491;28;20091;-81
2021/01/29 12:55:34;;;;;;;40.35;24.88;;;;;;;2.23;72.34;99400.03;5031737;28;20123;-82
2021/01/29 12:58:13;;;;;;;43.47;25.80;;;;;;;2.42;72.22;99384.06;5032657;28;20072;-83
2021/01/29 13:00:40;;;;;;;35.50;21.58;;;;;;;1.98;72.78;99373.41;5047634;28;20042;-83
2021/01/29 13:03:28;;;;;;;42.13;25.13;;;;;;;2.35;71.94;99392.47;5033797;28;20053;-82
2021/01/29 13:06:20;;;;;;;36.20;22.63;;;;;;;2.31;71.00;99384.16;5019124;28;20061;-83
2021/01/29 13:09:28;;;;;;;26.02;16.08;;;;;;;2.31;71.72;99375.78;5039155;28;20029;-84
2021/01/29 13:12:36;;;;;;;31.73;20.35;;;;;;;2.38;70.70;99379.91;5020429;28;20510;-84
2021/01/29 13:15:49;;;;;;;34.85;20.08;;;;;;;2.49;69.93;99390.72;5037393;28;20025;-83
2021/01/29 13:18:48;;;;;;;30.67;17.38;;;;;;;2.74;69.35;99381.38;5017253;28;20073;-82
2021/01/29 13:24:36;;;;;;;27.17;17.13;;;;;;;2.57;69.42;99394.03;5032077;28;20048;-82
2021/01/29 13:27:15;;;;;;;29.25;17.65;;;;;;;2.67;69.26;99392.31;5014541;28;20268;-81
2021/01/29 13:29:41;;;;;;;31.92;20.05;;;;;;;2.58;69.54;99389.00;5032095;28;20080;-81
2021/01/29 13:35:33;;;;;;;31.63;20.33;;;;;;;2.60;70.10;99404.88;5032435;28;20071;-80
2021/01/29 13:38:29;;;;;;;33.75;21.52;;;;;;;3.01;68.38;99393.75;5037307;28;20044;-80
2021/01/29 13:41:07;;;;;;;34.50;23.15;;;;;;;6.50;59.01;99339.91;5046938;28;20029;-80
2021/01/29 13:43:41;;;;;;;38.53;23.80;;;;;;;7.70;54.54;99325.16;5058293;28;20055;-80